sensor_id;sensor_type;location;lat;lon;timestamp;P1;durP1;ratioP1;P2;durP2;ratioP2
23567;SDS011;11962;50.838;4.430;2023-06-14T00:00:58;9.07;;;5.43;;
23567;SDS011;11962;50.838;4.430;2023-06-14T00:03:23;10.85;;;5.65;;
23567;SDS011;11962;50.838;4.430;2023-06-14T00:05:49;10.68;;;5.88;;
23567;SDS011;11962;50.838;4.430;2023-06-14T00:08:15;9.27;;;5.32;;
23567;SDS011;11962;50.838;4.430;2023-06-14T00:10:41;9.82;;;5.43;;
23567;SDS011;11962;50.838;4.430;2023-06-14T00:13:07;9.73;;;5.57;;
23567;SDS011;11962;50.838;4.430;2023-06-14T00:15:34;8.43;;;5.28;;
23567;SDS011;11962;50.838;4.430;2023-06-14T00:18:00;13.32;;;5.72;;
23567;SDS011;11962;50.838;4.430;2023-06-14T00:20:30;8.63;;;5.68;;
23567;SDS011;11962;50.838;4.430;2023-06-14T00:22:57;14.07;;;5.85;;
23567;SDS011;11962;50.838;4.430;2023-06-14T00:25:24;11.25;;;5.82;;
23567;SDS011;11962;50.838;4.430;2023-06-14T00:27:53;6.90;;;5.00;;
23567;SDS011;11962;50.838;4.430;2023-06-14T00:30:20;9.48;;;5.95;;
23567;SDS011;11962;50.838;4.430;2023-06-14T00:32:46;13.48;;;5.38;;
23567;SDS011;11962;50.838;4.430;2023-06-14T00:35:12;9.30;;;5.85;;
23567;SDS011;11962;50.838;4.430;2023-06-14T00:37:38;10.10;;;5.72;;
23567;SDS011;11962;50.838;4.430;2023-06-14T00:40:05;10.70;;;6.35;;
23567;SDS011;11962;50.838;4.430;2023-06-14T00:42:31;9.02;;;5.30;;
23567;SDS011;11962;50.838;4.430;2023-06-14T00:44:57;12.23;;;5.90;;
23567;SDS011;11962;50.838;4.430;2023-06-14T00:47:23;12.02;;;5.93;;
23567;SDS011;11962;50.838;4.430;2023-06-14T00:49:50;9.95;;;6.43;;
23567;SDS011;11962;50.838;4.430;2023-06-14T00:52:16;15.45;;;5.65;;
23567;SDS011;11962;50.838;4.430;2023-06-14T00:54:43;10.65;;;5.68;;
23567;SDS011;11962;50.838;4.430;2023-06-14T00:57:09;14.18;;;6.07;;
23567;SDS011;11962;50.838;4.430;2023-06-14T00:59:37;10.25;;;6.00;;
23567;SDS011;11962;50.838;4.430;2023-06-14T01:02:13;9.02;;;6.00;;
23567;SDS011;11962;50.838;4.430;2023-06-14T01:04:43;11.52;;;5.55;;
23567;SDS011;11962;50.838;4.430;2023-06-14T01:15:26;12.55;;;5.93;;
23567;SDS011;11962;50.838;4.430;2023-06-14T01:17:55;13.23;;;5.70;;
23567;SDS011;11962;50.838;4.430;2023-06-14T01:20:28;9.75;;;6.22;;
23567;SDS011;11962;50.838;4.430;2023-06-14T01:25:22;10.80;;;5.82;;
23567;SDS011;11962;50.838;4.430;2023-06-14T01:27:58;6.90;;;5.50;;
23567;SDS011;11962;50.838;4.430;2023-06-14T01:30:27;12.57;;;5.60;;
23567;SDS011;11962;50.838;4.430;2023-06-14T01:32:54;9.25;;;5.85;;
23567;SDS011;11962;50.838;4.430;2023-06-14T01:35:21;9.85;;;5.75;;
23567;SDS011;11962;50.838;4.430;2023-06-14T01:37:48;9.57;;;6.00;;
23567;SDS011;11962;50.838;4.430;2023-06-14T01:40:15;10.43;;;6.00;;
23567;SDS011;11962;50.838;4.430;2023-06-14T01:42:42;9.88;;;6.03;;
23567;SDS011;11962;50.838;4.430;2023-06-14T01:45:11;10.93;;;6.18;;
23567;SDS011;11962;50.838;4.430;2023-06-14T01:47:37;12.70;;;6.05;;
23567;SDS011;11962;50.838;4.430;2023-06-14T01:50:03;11.48;;;6.35;;
23567;SDS011;11962;50.838;4.430;2023-06-14T01:52:29;13.15;;;5.40;;
23567;SDS011;11962;50.838;4.430;2023-06-14T01:54:55;9.93;;;6.22;;
23567;SDS011;11962;50.838;4.430;2023-06-14T01:57:21;9.00;;;6.30;;
23567;SDS011;11962;50.838;4.430;2023-06-14T01:59:47;11.68;;;6.05;;
23567;SDS011;11962;50.838;4.430;2023-06-14T02:02:14;11.88;;;6.47;;
23567;SDS011;11962;50.838;4.430;2023-06-14T02:04:40;12.52;;;6.28;;
23567;SDS011;11962;50.838;4.430;2023-06-14T02:07:07;9.15;;;6.03;;
23567;SDS011;11962;50.838;4.430;2023-06-14T02:09:33;9.73;;;6.38;;
23567;SDS011;11962;50.838;4.430;2023-06-14T02:12:00;10.95;;;6.22;;
23567;SDS011;11962;50.838;4.430;2023-06-14T02:14:26;7.65;;;5.68;;
23567;SDS011;11962;50.838;4.430;2023-06-14T02:16:52;12.00;;;6.32;;
23567;SDS011;11962;50.838;4.430;2023-06-14T02:19:18;12.43;;;6.65;;
23567;SDS011;11962;50.838;4.430;2023-06-14T02:21:45;11.65;;;6.75;;
23567;SDS011;11962;50.838;4.430;2023-06-14T02:24:11;13.80;;;6.95;;
23567;SDS011;11962;50.838;4.430;2023-06-14T02:26:38;9.00;;;6.53;;
23567;SDS011;11962;50.838;4.430;2023-06-14T02:29:04;8.43;;;6.70;;
23567;SDS011;11962;50.838;4.430;2023-06-14T02:31:36;11.05;;;7.03;;
23567;SDS011;11962;50.838;4.430;2023-06-14T02:34:02;9.77;;;6.40;;
23567;SDS011;11962;50.838;4.430;2023-06-14T02:36:27;12.15;;;6.75;;
23567;SDS011;11962;50.838;4.430;2023-06-14T02:41:24;9.45;;;6.75;;
23567;SDS011;11962;50.838;4.430;2023-06-14T02:43:51;8.98;;;7.18;;
23567;SDS011;11962;50.838;4.430;2023-06-14T02:46:17;10.07;;;6.72;;
23567;SDS011;11962;50.838;4.430;2023-06-14T02:48:43;11.70;;;6.93;;
23567;SDS011;11962;50.838;4.430;2023-06-14T02:51:09;8.75;;;6.88;;
23567;SDS011;11962;50.838;4.430;2023-06-14T02:53:35;12.50;;;7.13;;
23567;SDS011;11962;50.838;4.430;2023-06-14T02:56:01;8.18;;;6.78;;
23567;SDS011;11962;50.838;4.430;2023-06-14T02:58:29;10.63;;;7.07;;
23567;SDS011;11962;50.838;4.430;2023-06-14T03:00:55;11.35;;;7.18;;
23567;SDS011;11962;50.838;4.430;2023-06-14T03:03:21;13.73;;;7.20;;
23567;SDS011;11962;50.838;4.430;2023-06-14T03:05:49;19.17;;;7.25;;
23567;SDS011;11962;50.838;4.430;2023-06-14T03:08:16;10.82;;;7.35;;
23567;SDS011;11962;50.838;4.430;2023-06-14T03:10:47;11.77;;;6.63;;
23567;SDS011;11962;50.838;4.430;2023-06-14T03:13:14;9.88;;;6.90;;
23567;SDS011;11962;50.838;4.430;2023-06-14T03:15:46;11.63;;;7.60;;
23567;SDS011;11962;50.838;4.430;2023-06-14T03:18:12;11.27;;;6.70;;
23567;SDS011;11962;50.838;4.430;2023-06-14T03:20:40;10.73;;;7.60;;
23567;SDS011;11962;50.838;4.430;2023-06-14T03:23:07;9.83;;;7.17;;
23567;SDS011;11962;50.838;4.430;2023-06-14T03:25:34;10.68;;;7.25;;
23567;SDS011;11962;50.838;4.430;2023-06-14T03:28:03;13.32;;;7.95;;
23567;SDS011;11962;50.838;4.430;2023-06-14T03:30:30;24.48;;;7.88;;
23567;SDS011;11962;50.838;4.430;2023-06-14T03:32:56;11.60;;;7.50;;
23567;SDS011;11962;50.838;4.430;2023-06-14T03:35:23;13.65;;;8.18;;
23567;SDS011;11962;50.838;4.430;2023-06-14T03:37:49;14.48;;;7.68;;
23567;SDS011;11962;50.838;4.430;2023-06-14T03:40:16;9.73;;;7.40;;
23567;SDS011;11962;50.838;4.430;2023-06-14T03:42:43;12.70;;;7.38;;
23567;SDS011;11962;50.838;4.430;2023-06-14T03:45:09;10.10;;;7.55;;
23567;SDS011;11962;50.838;4.430;2023-06-14T03:47:35;13.32;;;7.20;;
23567;SDS011;11962;50.838;4.430;2023-06-14T03:50:01;13.00;;;7.10;;
23567;SDS011;11962;50.838;4.430;2023-06-14T03:52:30;12.43;;;8.15;;
23567;SDS011;11962;50.838;4.430;2023-06-14T03:54:57;12.02;;;7.43;;
23567;SDS011;11962;50.838;4.430;2023-06-14T03:57:25;9.15;;;7.55;;
23567;SDS011;11962;50.838;4.430;2023-06-14T03:59:51;13.57;;;7.43;;
23567;SDS011;11962;50.838;4.430;2023-06-14T04:02:22;15.60;;;7.43;;
23567;SDS011;11962;50.838;4.430;2023-06-14T04:04:48;12.77;;;7.40;;
23567;SDS011;11962;50.838;4.430;2023-06-14T04:07:15;9.23;;;7.50;;
23567;SDS011;11962;50.838;4.430;2023-06-14T04:09:44;12.15;;;7.75;;
23567;SDS011;11962;50.838;4.430;2023-06-14T04:12:10;9.63;;;7.07;;
23567;SDS011;11962;50.838;4.430;2023-06-14T04:14:36;12.68;;;7.68;;
23567;SDS011;11962;50.838;4.430;2023-06-14T04:17:03;17.17;;;7.55;;
23567;SDS011;11962;50.838;4.430;2023-06-14T04:19:29;11.40;;;7.78;;
23567;SDS011;11962;50.838;4.430;2023-06-14T04:21:55;10.25;;;7.35;;
23567;SDS011;11962;50.838;4.430;2023-06-14T04:24:23;18.48;;;7.65;;
23567;SDS011;11962;50.838;4.430;2023-06-14T04:26:56;13.20;;;8.13;;
23567;SDS011;11962;50.838;4.430;2023-06-14T04:29:28;11.55;;;7.43;;
23567;SDS011;11962;50.838;4.430;2023-06-14T04:31:54;10.75;;;7.28;;
23567;SDS011;11962;50.838;4.430;2023-06-14T04:34:25;15.13;;;8.10;;
23567;SDS011;11962;50.838;4.430;2023-06-14T04:36:55;14.30;;;8.15;;
23567;SDS011;11962;50.838;4.430;2023-06-14T04:39:21;15.05;;;7.82;;
23567;SDS011;11962;50.838;4.430;2023-06-14T04:41:48;11.25;;;7.93;;
23567;SDS011;11962;50.838;4.430;2023-06-14T04:44:18;17.13;;;7.68;;
23567;SDS011;11962;50.838;4.430;2023-06-14T04:46:45;14.30;;;7.60;;
23567;SDS011;11962;50.838;4.430;2023-06-14T04:49:17;13.45;;;8.02;;
23567;SDS011;11962;50.838;4.430;2023-06-14T04:51:46;13.20;;;7.85;;
23567;SDS011;11962;50.838;4.430;2023-06-14T04:54:16;17.05;;;7.90;;
23567;SDS011;11962;50.838;4.430;2023-06-14T04:56:43;19.63;;;7.72;;
23567;SDS011;11962;50.838;4.430;2023-06-14T04:59:10;14.00;;;8.15;;
23567;SDS011;11962;50.838;4.430;2023-06-14T05:01:40;18.02;;;7.78;;
23567;SDS011;11962;50.838;4.430;2023-06-14T05:04:06;15.02;;;7.90;;
23567;SDS011;11962;50.838;4.430;2023-06-14T05:06:31;14.50;;;7.35;;
23567;SDS011;11962;50.838;4.430;2023-06-14T05:08:58;14.88;;;7.60;;
23567;SDS011;11962;50.838;4.430;2023-06-14T05:11:26;10.10;;;7.60;;
23567;SDS011;11962;50.838;4.430;2023-06-14T05:13:52;14.93;;;7.57;;
23567;SDS011;11962;50.838;4.430;2023-06-14T05:16:18;16.00;;;7.78;;
23567;SDS011;11962;50.838;4.430;2023-06-14T05:18:45;11.73;;;7.70;;
23567;SDS011;11962;50.838;4.430;2023-06-14T05:21:12;16.58;;;7.22;;
23567;SDS011;11962;50.838;4.430;2023-06-14T05:23:42;13.95;;;8.30;;
23567;SDS011;11962;50.838;4.430;2023-06-14T05:26:09;21.67;;;8.27;;
23567;SDS011;11962;50.838;4.430;2023-06-14T05:28:35;15.38;;;8.45;;
23567;SDS011;11962;50.838;4.430;2023-06-14T05:31:04;15.18;;;7.63;;
23567;SDS011;11962;50.838;4.430;2023-06-14T05:33:30;13.05;;;7.25;;
23567;SDS011;11962;50.838;4.430;2023-06-14T05:35:59;13.65;;;7.90;;
23567;SDS011;11962;50.838;4.430;2023-06-14T05:38:30;25.60;;;7.57;;
23567;SDS011;11962;50.838;4.430;2023-06-14T05:40:56;16.30;;;7.63;;
23567;SDS011;11962;50.838;4.430;2023-06-14T05:43:22;14.27;;;8.25;;
23567;SDS011;11962;50.838;4.430;2023-06-14T05:45:48;27.15;;;7.40;;
23567;SDS011;11962;50.838;4.430;2023-06-14T05:48:14;10.15;;;6.88;;
23567;SDS011;11962;50.838;4.430;2023-06-14T05:50:40;12.60;;;7.75;;
23567;SDS011;11962;50.838;4.430;2023-06-14T05:53:06;13.93;;;7.03;;
23567;SDS011;11962;50.838;4.430;2023-06-14T05:55:38;8.77;;;6.78;;
23567;SDS011;11962;50.838;4.430;2023-06-14T05:58:03;9.63;;;6.45;;
23567;SDS011;11962;50.838;4.430;2023-06-14T06:00:30;12.98;;;6.88;;
23567;SDS011;11962;50.838;4.430;2023-06-14T06:02:58;10.68;;;6.65;;
23567;SDS011;11962;50.838;4.430;2023-06-14T06:05:25;17.30;;;7.28;;
23567;SDS011;11962;50.838;4.430;2023-06-14T06:07:51;14.30;;;6.32;;
23567;SDS011;11962;50.838;4.430;2023-06-14T06:10:17;12.07;;;6.55;;
23567;SDS011;11962;50.838;4.430;2023-06-14T06:12:43;15.55;;;6.63;;
23567;SDS011;11962;50.838;4.430;2023-06-14T06:15:13;15.27;;;6.72;;
23567;SDS011;11962;50.838;4.430;2023-06-14T06:17:39;8.93;;;6.05;;
23567;SDS011;11962;50.838;4.430;2023-06-14T06:20:08;12.32;;;6.07;;
23567;SDS011;11962;50.838;4.430;2023-06-14T06:22:34;12.82;;;5.40;;
23567;SDS011;11962;50.838;4.430;2023-06-14T06:25:00;10.38;;;6.07;;
23567;SDS011;11962;50.838;4.430;2023-06-14T06:27:26;13.02;;;5.72;;
23567;SDS011;11962;50.838;4.430;2023-06-14T06:29:52;10.85;;;5.60;;
23567;SDS011;11962;50.838;4.430;2023-06-14T06:32:18;16.08;;;5.40;;
23567;SDS011;11962;50.838;4.430;2023-06-14T06:34:43;10.93;;;5.40;;
23567;SDS011;11962;50.838;4.430;2023-06-14T06:37:10;11.88;;;5.05;;
23567;SDS011;11962;50.838;4.430;2023-06-14T06:39:35;6.07;;;5.00;;
23567;SDS011;11962;50.838;4.430;2023-06-14T06:42:01;9.85;;;5.07;;
23567;SDS011;11962;50.838;4.430;2023-06-14T06:44:27;8.77;;;5.40;;
23567;SDS011;11962;50.838;4.430;2023-06-14T06:46:53;8.80;;;4.75;;
23567;SDS011;11962;50.838;4.430;2023-06-14T06:49:18;12.25;;;5.25;;
23567;SDS011;11962;50.838;4.430;2023-06-14T06:51:58;7.60;;;5.20;;
23567;SDS011;11962;50.838;4.430;2023-06-14T06:54:29;9.07;;;4.82;;
23567;SDS011;11962;50.838;4.430;2023-06-14T06:56:55;6.07;;;4.63;;
23567;SDS011;11962;50.838;4.430;2023-06-14T06:59:21;7.40;;;4.57;;
23567;SDS011;11962;50.838;4.430;2023-06-14T07:01:46;6.47;;;4.18;;
23567;SDS011;11962;50.838;4.430;2023-06-14T07:04:12;6.05;;;4.47;;
23567;SDS011;11962;50.838;4.430;2023-06-14T07:06:38;9.90;;;5.43;;
23567;SDS011;11962;50.838;4.430;2023-06-14T07:09:04;9.37;;;4.30;;
23567;SDS011;11962;50.838;4.430;2023-06-14T07:11:33;8.88;;;4.35;;
23567;SDS011;11962;50.838;4.430;2023-06-14T07:13:59;9.07;;;4.50;;
23567;SDS011;11962;50.838;4.430;2023-06-14T07:16:25;9.07;;;4.80;;
23567;SDS011;11962;50.838;4.430;2023-06-14T07:18:51;8.00;;;4.23;;
23567;SDS011;11962;50.838;4.430;2023-06-14T07:21:17;8.15;;;4.60;;
23567;SDS011;11962;50.838;4.430;2023-06-14T07:23:43;9.57;;;4.30;;
23567;SDS011;11962;50.838;4.430;2023-06-14T07:26:09;9.03;;;4.10;;
23567;SDS011;11962;50.838;4.430;2023-06-14T07:28:34;7.07;;;4.10;;
23567;SDS011;11962;50.838;4.430;2023-06-14T07:31:00;12.18;;;4.50;;
23567;SDS011;11962;50.838;4.430;2023-06-14T07:35:53;7.75;;;3.72;;
23567;SDS011;11962;50.838;4.430;2023-06-14T07:38:19;6.57;;;4.37;;
23567;SDS011;11962;50.838;4.430;2023-06-14T07:40:44;11.55;;;3.83;;
23567;SDS011;11962;50.838;4.430;2023-06-14T07:43:10;9.13;;;4.20;;
23567;SDS011;11962;50.838;4.430;2023-06-14T07:45:36;5.80;;;4.00;;
23567;SDS011;11962;50.838;4.430;2023-06-14T07:50:28;7.40;;;4.10;;
23567;SDS011;11962;50.838;4.430;2023-06-14T07:52:54;7.28;;;3.95;;
23567;SDS011;11962;50.838;4.430;2023-06-14T07:55:20;9.32;;;4.10;;
23567;SDS011;11962;50.838;4.430;2023-06-14T07:57:45;5.70;;;3.58;;
23567;SDS011;11962;50.838;4.430;2023-06-14T08:00:11;5.32;;;4.10;;
23567;SDS011;11962;50.838;4.430;2023-06-14T08:02:43;7.35;;;4.28;;
23567;SDS011;11962;50.838;4.430;2023-06-14T08:05:12;9.02;;;4.03;;
23567;SDS011;11962;50.838;4.430;2023-06-14T08:07:39;9.45;;;3.80;;
23567;SDS011;11962;50.838;4.430;2023-06-14T08:10:05;10.23;;;3.95;;
23567;SDS011;11962;50.838;4.430;2023-06-14T08:12:32;9.65;;;4.25;;
23567;SDS011;11962;50.838;4.430;2023-06-14T08:14:59;11.48;;;4.00;;
23567;SDS011;11962;50.838;4.430;2023-06-14T08:17:24;12.02;;;4.03;;
23567;SDS011;11962;50.838;4.430;2023-06-14T08:19:50;13.93;;;4.00;;
23567;SDS011;11962;50.838;4.430;2023-06-14T08:22:16;6.65;;;4.03;;
23567;SDS011;11962;50.838;4.430;2023-06-14T08:24:43;13.45;;;4.22;;
23567;SDS011;11962;50.838;4.430;2023-06-14T08:29:35;8.38;;;4.25;;
23567;SDS011;11962;50.838;4.430;2023-06-14T08:32:00;8.15;;;4.53;;
23567;SDS011;11962;50.838;4.430;2023-06-14T08:34:27;8.18;;;4.22;;
23567;SDS011;11962;50.838;4.430;2023-06-14T08:36:52;7.45;;;4.55;;
23567;SDS011;11962;50.838;4.430;2023-06-14T08:39:21;10.82;;;3.95;;
23567;SDS011;11962;50.838;4.430;2023-06-14T08:41:47;15.15;;;4.55;;
23567;SDS011;11962;50.838;4.430;2023-06-14T08:44:15;7.68;;;4.32;;
23567;SDS011;11962;50.838;4.430;2023-06-14T08:46:44;6.90;;;3.90;;
23567;SDS011;11962;50.838;4.430;2023-06-14T08:49:16;6.78;;;4.00;;
23567;SDS011;11962;50.838;4.430;2023-06-14T08:51:42;9.73;;;4.28;;
23567;SDS011;11962;50.838;4.430;2023-06-14T08:54:09;5.85;;;4.10;;
23567;SDS011;11962;50.838;4.430;2023-06-14T08:56:37;10.90;;;4.50;;
23567;SDS011;11962;50.838;4.430;2023-06-14T08:59:04;13.50;;;4.50;;
23567;SDS011;11962;50.838;4.430;2023-06-14T09:01:36;7.57;;;4.47;;
23567;SDS011;11962;50.838;4.430;2023-06-14T09:04:05;8.00;;;4.30;;
23567;SDS011;11962;50.838;4.430;2023-06-14T09:06:30;7.13;;;4.10;;
23567;SDS011;11962;50.838;4.430;2023-06-14T09:08:58;7.88;;;4.65;;
23567;SDS011;11962;50.838;4.430;2023-06-14T09:11:24;9.05;;;4.15;;
23567;SDS011;11962;50.838;4.430;2023-06-14T09:13:53;8.25;;;4.10;;
23567;SDS011;11962;50.838;4.430;2023-06-14T09:16:18;8.25;;;4.07;;
23567;SDS011;11962;50.838;4.430;2023-06-14T09:18:45;8.63;;;4.10;;
23567;SDS011;11962;50.838;4.430;2023-06-14T09:21:15;5.80;;;3.70;;
23567;SDS011;11962;50.838;4.430;2023-06-14T09:23:42;6.70;;;4.68;;
23567;SDS011;11962;50.838;4.430;2023-06-14T09:26:13;8.63;;;4.05;;
23567;SDS011;11962;50.838;4.430;2023-06-14T09:28:50;6.70;;;3.88;;
23567;SDS011;11962;50.838;4.430;2023-06-14T09:31:17;6.93;;;4.40;;
23567;SDS011;11962;50.838;4.430;2023-06-14T09:33:49;5.60;;;3.80;;
23567;SDS011;11962;50.838;4.430;2023-06-14T09:36:16;9.60;;;4.88;;
23567;SDS011;11962;50.838;4.430;2023-06-14T09:38:51;16.50;;;4.40;;
23567;SDS011;11962;50.838;4.430;2023-06-14T09:41:33;4.20;;;3.47;;
23567;SDS011;11962;50.838;4.430;2023-06-14T09:44:00;6.82;;;3.78;;
23567;SDS011;11962;50.838;4.430;2023-06-14T09:46:27;5.68;;;3.85;;
23567;SDS011;11962;50.838;4.430;2023-06-14T09:48:54;8.57;;;3.67;;
23567;SDS011;11962;50.838;4.430;2023-06-14T09:53:48;8.90;;;4.05;;
23567;SDS011;11962;50.838;4.430;2023-06-14T09:56:19;6.28;;;3.85;;
23567;SDS011;11962;50.838;4.430;2023-06-14T09:58:53;7.25;;;3.60;;
23567;SDS011;11962;50.838;4.430;2023-06-14T10:01:20;7.32;;;4.45;;
23567;SDS011;11962;50.838;4.430;2023-06-14T10:03:50;5.97;;;3.75;;
23567;SDS011;11962;50.838;4.430;2023-06-14T10:06:20;8.82;;;4.22;;
23567;SDS011;11962;50.838;4.430;2023-06-14T10:08:49;8.48;;;4.15;;
23567;SDS011;11962;50.838;4.430;2023-06-14T10:11:19;9.30;;;4.28;;
23567;SDS011;11962;50.838;4.430;2023-06-14T10:13:45;6.35;;;3.95;;
23567;SDS011;11962;50.838;4.430;2023-06-14T10:19:11;6.43;;;4.25;;
23567;SDS011;11962;50.838;4.430;2023-06-14T10:24:18;6.60;;;4.00;;
23567;SDS011;11962;50.838;4.430;2023-06-14T10:26:50;8.88;;;4.18;;
23567;SDS011;11962;50.838;4.430;2023-06-14T10:29:17;6.97;;;3.75;;
23567;SDS011;11962;50.838;4.430;2023-06-14T10:31:43;9.13;;;4.40;;
23567;SDS011;11962;50.838;4.430;2023-06-14T10:34:29;5.97;;;3.65;;
23567;SDS011;11962;50.838;4.430;2023-06-14T10:37:06;5.18;;;3.28;;
23567;SDS011;11962;50.838;4.430;2023-06-14T10:39:40;5.60;;;3.22;;
23567;SDS011;11962;50.838;4.430;2023-06-14T10:42:07;5.32;;;3.20;;
23567;SDS011;11962;50.838;4.430;2023-06-14T10:44:41;3.92;;;3.35;;
23567;SDS011;11962;50.838;4.430;2023-06-14T10:47:20;4.70;;;3.28;;
23567;SDS011;11962;50.838;4.430;2023-06-14T10:49:52;7.18;;;3.35;;
23567;SDS011;11962;50.838;4.430;2023-06-14T10:52:21;7.80;;;3.10;;
23567;SDS011;11962;50.838;4.430;2023-06-14T11:00:17;9.23;;;4.00;;
23567;SDS011;11962;50.838;4.430;2023-06-14T11:05:56;8.40;;;3.45;;
23567;SDS011;11962;50.838;4.430;2023-06-14T11:11:06;5.03;;;3.30;;
23567;SDS011;11962;50.838;4.430;2023-06-14T11:13:33;7.95;;;3.20;;
23567;SDS011;11962;50.838;4.430;2023-06-14T11:16:02;7.05;;;3.50;;
23567;SDS011;11962;50.838;4.430;2023-06-14T11:18:36;10.07;;;3.40;;
23567;SDS011;11962;50.838;4.430;2023-06-14T11:21:02;3.57;;;3.03;;
23567;SDS011;11962;50.838;4.430;2023-06-14T11:23:28;6.67;;;3.70;;
23567;SDS011;11962;50.838;4.430;2023-06-14T11:25:54;11.68;;;3.47;;
23567;SDS011;11962;50.838;4.430;2023-06-14T11:28:20;7.20;;;3.10;;
23567;SDS011;11962;50.838;4.430;2023-06-14T11:30:47;7.57;;;3.35;;
23567;SDS011;11962;50.838;4.430;2023-06-14T11:33:16;6.13;;;3.00;;
23567;SDS011;11962;50.838;4.430;2023-06-14T11:35:46;9.20;;;3.22;;
23567;SDS011;11962;50.838;4.430;2023-06-14T11:38:11;6.73;;;3.50;;
23567;SDS011;11962;50.838;4.430;2023-06-14T11:40:38;7.45;;;3.40;;
23567;SDS011;11962;50.838;4.430;2023-06-14T11:43:04;6.30;;;2.85;;
23567;SDS011;11962;50.838;4.430;2023-06-14T11:45:30;10.73;;;3.37;;
23567;SDS011;11962;50.838;4.430;2023-06-14T11:47:57;7.07;;;3.22;;
23567;SDS011;11962;50.838;4.430;2023-06-14T11:50:24;9.38;;;3.70;;
23567;SDS011;11962;50.838;4.430;2023-06-14T11:52:53;6.60;;;3.50;;
23567;SDS011;11962;50.838;4.430;2023-06-14T11:55:21;9.85;;;3.83;;
23567;SDS011;11962;50.838;4.430;2023-06-14T11:57:47;6.07;;;3.80;;
23567;SDS011;11962;50.838;4.430;2023-06-14T12:00:13;5.82;;;3.50;;
23567;SDS011;11962;50.838;4.430;2023-06-14T12:02:40;8.10;;;3.40;;
23567;SDS011;11962;50.838;4.430;2023-06-14T12:05:07;9.27;;;4.07;;
23567;SDS011;11962;50.838;4.430;2023-06-14T12:07:36;8.20;;;3.53;;
23567;SDS011;11962;50.838;4.430;2023-06-14T12:12:34;5.00;;;3.22;;
23567;SDS011;11962;50.838;4.430;2023-06-14T12:15:05;9.90;;;3.55;;
23567;SDS011;11962;50.838;4.430;2023-06-14T12:17:35;5.03;;;3.53;;
23567;SDS011;11962;50.838;4.430;2023-06-14T12:20:07;8.40;;;3.53;;
23567;SDS011;11962;50.838;4.430;2023-06-14T12:22:59;8.23;;;3.63;;
23567;SDS011;11962;50.838;4.430;2023-06-14T12:25:36;10.00;;;4.30;;
23567;SDS011;11962;50.838;4.430;2023-06-14T12:28:05;7.22;;;3.33;;
23567;SDS011;11962;50.838;4.430;2023-06-14T12:30:32;7.78;;;3.78;;
23567;SDS011;11962;50.838;4.430;2023-06-14T12:32:59;10.43;;;3.92;;
23567;SDS011;11962;50.838;4.430;2023-06-14T12:35:26;8.27;;;4.20;;
23567;SDS011;11962;50.838;4.430;2023-06-14T12:37:54;5.80;;;3.08;;
23567;SDS011;11962;50.838;4.430;2023-06-14T12:40:21;4.55;;;3.60;;
23567;SDS011;11962;50.838;4.430;2023-06-14T12:42:47;9.32;;;3.55;;
23567;SDS011;11962;50.838;4.430;2023-06-14T12:45:13;7.50;;;3.63;;
23567;SDS011;11962;50.838;4.430;2023-06-14T12:47:39;6.68;;;3.75;;
23567;SDS011;11962;50.838;4.430;2023-06-14T12:50:05;7.45;;;3.72;;
23567;SDS011;11962;50.838;4.430;2023-06-14T12:52:31;5.65;;;3.28;;
23567;SDS011;11962;50.838;4.430;2023-06-14T12:55:01;13.38;;;3.28;;
23567;SDS011;11962;50.838;4.430;2023-06-14T12:57:30;3.95;;;3.35;;
23567;SDS011;11962;50.838;4.430;2023-06-14T12:59:56;10.40;;;3.33;;
23567;SDS011;11962;50.838;4.430;2023-06-14T13:02:22;9.43;;;3.30;;
23567;SDS011;11962;50.838;4.430;2023-06-14T13:04:49;6.05;;;3.10;;
23567;SDS011;11962;50.838;4.430;2023-06-14T13:07:15;8.50;;;3.08;;
23567;SDS011;11962;50.838;4.430;2023-06-14T13:09:41;5.53;;;3.20;;
23567;SDS011;11962;50.838;4.430;2023-06-14T13:12:09;5.95;;;2.75;;
23567;SDS011;11962;50.838;4.430;2023-06-14T13:14:36;5.90;;;3.30;;
23567;SDS011;11962;50.838;4.430;2023-06-14T13:17:02;5.68;;;3.10;;
23567;SDS011;11962;50.838;4.430;2023-06-14T13:19:28;7.28;;;3.17;;
23567;SDS011;11962;50.838;4.430;2023-06-14T13:21:54;6.20;;;2.83;;
23567;SDS011;11962;50.838;4.430;2023-06-14T13:24:19;7.20;;;3.15;;
23567;SDS011;11962;50.838;4.430;2023-06-14T13:26:45;5.97;;;3.15;;
23567;SDS011;11962;50.838;4.430;2023-06-14T13:29:11;10.05;;;3.20;;
23567;SDS011;11962;50.838;4.430;2023-06-14T13:31:37;8.55;;;3.15;;
23567;SDS011;11962;50.838;4.430;2023-06-14T13:34:02;6.95;;;2.60;;
23567;SDS011;11962;50.838;4.430;2023-06-14T13:36:29;4.30;;;2.67;;
23567;SDS011;11962;50.838;4.430;2023-06-14T13:38:55;5.97;;;2.70;;
23567;SDS011;11962;50.838;4.430;2023-06-14T13:41:23;4.35;;;2.90;;
23567;SDS011;11962;50.838;4.430;2023-06-14T13:43:56;5.60;;;2.92;;
23567;SDS011;11962;50.838;4.430;2023-06-14T13:46:22;5.57;;;2.63;;
23567;SDS011;11962;50.838;4.430;2023-06-14T13:48:48;5.50;;;2.58;;
23567;SDS011;11962;50.838;4.430;2023-06-14T13:51:14;3.95;;;2.60;;
23567;SDS011;11962;50.838;4.430;2023-06-14T13:53:39;4.55;;;2.42;;
23567;SDS011;11962;50.838;4.430;2023-06-14T13:56:05;3.22;;;2.38;;
23567;SDS011;11962;50.838;4.430;2023-06-14T13:58:31;3.25;;;2.28;;
23567;SDS011;11962;50.838;4.430;2023-06-14T14:00:57;9.98;;;2.25;;
23567;SDS011;11962;50.838;4.430;2023-06-14T14:03:24;5.63;;;2.30;;
23567;SDS011;11962;50.838;4.430;2023-06-14T14:05:50;5.82;;;2.38;;
23567;SDS011;11962;50.838;4.430;2023-06-14T14:08:16;3.53;;;1.98;;
23567;SDS011;11962;50.838;4.430;2023-06-14T14:10:41;4.35;;;1.85;;
23567;SDS011;11962;50.838;4.430;2023-06-14T14:13:07;8.93;;;2.67;;
23567;SDS011;11962;50.838;4.430;2023-06-14T14:15:33;6.03;;;3.00;;
23567;SDS011;11962;50.838;4.430;2023-06-14T14:17:59;3.13;;;1.98;;
23567;SDS011;11962;50.838;4.430;2023-06-14T14:20:25;3.40;;;1.90;;
23567;SDS011;11962;50.838;4.430;2023-06-14T14:22:51;3.92;;;2.67;;
23567;SDS011;11962;50.838;4.430;2023-06-14T14:25:17;4.20;;;2.35;;
23567;SDS011;11962;50.838;4.430;2023-06-14T14:27:42;4.43;;;2.60;;
23567;SDS011;11962;50.838;4.430;2023-06-14T14:30:08;3.85;;;1.70;;
23567;SDS011;11962;50.838;4.430;2023-06-14T14:32:34;3.55;;;1.90;;
23567;SDS011;11962;50.838;4.430;2023-06-14T14:35:00;2.72;;;2.00;;
23567;SDS011;11962;50.838;4.430;2023-06-14T14:37:26;5.93;;;2.00;;
23567;SDS011;11962;50.838;4.430;2023-06-14T14:39:51;5.43;;;1.80;;
23567;SDS011;11962;50.838;4.430;2023-06-14T14:42:17;5.20;;;1.60;;
23567;SDS011;11962;50.838;4.430;2023-06-14T14:44:43;7.95;;;1.60;;
23567;SDS011;11962;50.838;4.430;2023-06-14T14:47:09;6.60;;;1.65;;
23567;SDS011;11962;50.838;4.430;2023-06-14T14:49:35;3.03;;;1.90;;
23567;SDS011;11962;50.838;4.430;2023-06-14T14:52:01;3.15;;;1.60;;
23567;SDS011;11962;50.838;4.430;2023-06-14T14:54:27;6.45;;;1.80;;
23567;SDS011;11962;50.838;4.430;2023-06-14T14:56:57;4.53;;;1.80;;
23567;SDS011;11962;50.838;4.430;2023-06-14T14:59:22;5.47;;;1.90;;
23567;SDS011;11962;50.838;4.430;2023-06-14T15:01:48;5.43;;;1.60;;
23567;SDS011;11962;50.838;4.430;2023-06-14T15:04:15;4.33;;;1.67;;
23567;SDS011;11962;50.838;4.430;2023-06-14T15:06:41;6.10;;;1.40;;
23567;SDS011;11962;50.838;4.430;2023-06-14T15:09:07;6.63;;;1.42;;
23567;SDS011;11962;50.838;4.430;2023-06-14T15:11:33;5.38;;;1.35;;
23567;SDS011;11962;50.838;4.430;2023-06-14T15:13:58;2.30;;;1.60;;
23567;SDS011;11962;50.838;4.430;2023-06-14T15:16:24;4.07;;;2.10;;
23567;SDS011;11962;50.838;4.430;2023-06-14T15:18:50;3.25;;;1.80;;
23567;SDS011;11962;50.838;4.430;2023-06-14T15:21:16;4.18;;;1.75;;
23567;SDS011;11962;50.838;4.430;2023-06-14T15:26:10;2.47;;;1.70;;
23567;SDS011;11962;50.838;4.430;2023-06-14T15:28:36;4.25;;;1.70;;